Time;durP1;ratioP1;P1;durP2;ratioP2;P2;SDS_P1;SDS_P2;PMS_P1;PMS_P2;Temp;Humidity;BMP_temperature;BMP_pressure;BME280_temperature;BME280_humidity;BME280_pressure;Samples;Min_cycle;Max_cycle;Signal;HPM_P1;HPM_P2
2022/12/17 13:06:43;;;;;;;75.40;27.25;;;0.10;99.90;;;;;;5039294;28;20068;-63
2022/12/17 13:09:14;;;;;;;73.68;28.25;;;0.10;99.90;;;;;;5025786;28;20073;-62
2022/12/17 13:14:27;;;;;;;70.75;27.15;;;0.10;99.90;;;;;;5028917;28;20042;-71
2022/12/17 13:16:58;;;;;;;74.90;28.25;;;0.10;99.90;;;;;;5030498;28;20037;-71
2022/12/17 13:19:30;;;;;;;75.65;26.45;;;0.00;99.90;;;;;;5023067;28;20068;-71
2022/12/17 13:22:11;;;;;;;63.20;24.45;;;0.00;99.90;;;;;;5028203;28;20041;-71
2022/12/17 13:24:37;;;;;;;76.38;29.98;;;0.00;99.90;;;;;;5010247;28;20045;-71
2022/12/17 13:27:03;;;;;;;80.57;28.45;;;0.00;99.90;;;;;;5004851;28;20030;-71
2022/12/17 13:29:34;;;;;;;72.28;27.05;;;0.00;99.90;;;;;;5001327;28;20042;-71
2022/12/17 13:32:00;;;;;;;78.47;29.40;;;-0.10;99.90;;;;;;5000813;28;20530;-72
2022/12/17 13:34:57;;;;;;;77.20;28.23;;;-0.10;99.90;;;;;;5006431;28;20066;-71
2022/12/17 13:37:37;;;;;;;69.93;26.80;;;-0.10;99.90;;;;;;5002456;28;20042;-71
2022/12/17 13:40:22;;;;;;;76.75;26.77;;;-0.10;99.90;;;;;;5009631;28;20057;-71
2022/12/17 13:42:49;;;;;;;68.30;28.23;;;-0.20;99.90;;;;;;5020490;28;20052;-72
2022/12/17 13:45:17;;;;;;;76.85;29.30;;;-0.20;99.90;;;;;;5020885;28;20041;-72
2022/12/17 13:47:42;;;;;;;81.05;28.20;;;-0.20;99.90;;;;;;5012033;28;20451;-72
2022/12/17 13:50:20;;;;;;;79.35;28.15;;;-0.20;99.90;;;;;;5023158;28;20042;-72
2022/12/17 13:52:46;;;;;;;81.75;28.90;;;-0.30;99.90;;;;;;5014627;28;20085;-72
2022/12/17 13:55:24;;;;;;;75.70;28.23;;;-0.20;99.90;;;;;;5013160;28;20062;-72
2022/12/17 13:57:51;;;;;;;77.88;28.63;;;-0.20;99.90;;;;;;5024921;28;20116;-72
2022/12/17 14:00:27;;;;;;;80.13;28.23;;;-0.30;99.90;;;;;;5019236;28;20075;-72
2022/12/17 14:02:53;;;;;;;80.95;29.95;;;-0.30;99.90;;;;;;5012520;28;20073;-72
2022/12/17 14:05:41;;;;;;;75.97;27.67;;;-0.20;99.90;;;;;;5004555;28;20586;-73
2022/12/17 14:08:08;;;;;;;79.53;28.50;;;-0.30;99.90;;;;;;4993848;28;20046;-72
2022/12/17 14:10:33;;;;;;;84.50;27.15;;;-0.30;99.90;;;;;;5004022;28;20444;-72
2022/12/17 14:13:09;;;;;;;79.07;27.05;;;-0.30;99.90;;;;;;5033177;28;20034;-72
2022/12/17 14:15:35;;;;;;;80.05;27.40;;;-0.30;99.90;;;;;;5023852;28;20495;-72
2022/12/17 14:18:02;;;;;;;82.50;27.35;;;-0.40;99.90;;;;;;5007429;28;20084;-72
2022/12/17 14:20:39;;;;;;;78.88;26.50;;;-0.40;99.90;;;;;;5018047;28;20038;-72
2022/12/17 14:23:11;;;;;;;81.60;26.65;;;-0.40;99.90;;;;;;5018947;28;20077;-72
2022/12/17 14:25:42;;;;;;;72.80;24.67;;;-0.40;99.90;;;;;;5022955;28;20042;-73
2022/12/17 14:28:23;;;;;;;70.80;24.92;;;-0.50;99.90;;;;;;5012938;28;20121;-73
2022/12/17 14:30:50;;;;;;;76.20;25.98;;;-0.60;99.90;;;;;;5003236;28;20042;-72
2022/12/17 14:33:29;;;;;;;74.13;26.92;;;-0.60;99.90;;;;;;5002282;28;20101;-73
2022/12/17 14:35:57;;;;;;;69.63;25.13;;;-0.60;99.90;;;;;;4996148;28;20089;-72
2022/12/17 14:38:23;;;;;;;74.85;25.58;;;-0.70;99.90;;;;;;5013039;28;20034;-73
2022/12/17 14:40:49;;;;;;;70.22;23.98;;;-0.70;99.90;;;;;;5011035;28;20084;-73
2022/12/17 14:43:15;;;;;;;77.40;27.75;;;-0.70;99.90;;;;;;5020451;28;20037;-73
2022/12/17 14:48:59;;;;;;;69.18;25.92;;;-0.70;99.90;;;;;;5005193;28;20614;-73
2022/12/17 14:51:41;;;;;;;84.63;26.67;;;-0.70;99.90;;;;;;5012026;28;20029;-72
2022/12/17 14:54:19;;;;;;;83.47;27.98;;;-0.70;99.90;;;;;;5014688;28;20046;-72
2022/12/17 14:56:46;;;;;;;80.07;24.90;;;-0.70;99.90;;;;;;5014345;28;20405;-73
2022/12/17 14:59:32;;;;;;;85.25;27.90;;;-0.70;99.90;;;;;;5000736;28;20042;-73
2022/12/17 15:02:09;;;;;;;87.85;27.05;;;-0.70;99.90;;;;;;5016035;28;20588;-73
2022/12/17 15:04:38;;;;;;;76.32;25.88;;;-0.70;99.90;;;;;;5011239;28;20506;-73
2022/12/17 15:07:05;;;;;;;81.50;26.73;;;-0.80;99.90;;;;;;5023836;28;20036;-73
2022/12/17 15:09:36;;;;;;;80.45;25.92;;;-0.80;99.90;;;;;;5013018;28;20490;-73
2022/12/17 15:12:01;;;;;;;82.00;26.65;;;-0.80;99.90;;;;;;5011447;28;20526;-73
2022/12/17 15:14:27;;;;;;;76.80;27.85;;;-0.80;99.90;;;;;;5018949;28;20033;-73
2022/12/17 15:16:54;;;;;;;82.72;25.85;;;-0.90;99.90;;;;;;5025004;28;20449;-72
2022/12/17 15:19:20;;;;;;;82.95;27.85;;;-0.90;99.90;;;;;;5015699;28;20037;-73
2022/12/17 15:21:45;;;;;;;76.78;25.58;;;-0.90;99.90;;;;;;5011174;28;20407;-72
2022/12/17 15:24:14;;;;;;;88.82;27.70;;;-0.90;99.90;;;;;;5013469;28;20033;-73
2022/12/17 15:26:40;;;;;;;82.88;29.35;;;-0.90;99.90;;;;;;5017273;28;20236;-73
2022/12/17 15:29:05;;;;;;;109.40;35.55;;;-0.90;99.90;;;;;;5009895;28;20150;-73
2022/12/17 15:31:31;;;;;;;114.88;43.83;;;-0.90;99.90;;;;;;5022024;28;20060;-73
2022/12/17 15:33:57;;;;;;;88.93;28.77;;;-0.90;99.90;;;;;;5020132;28;20050;-72
2022/12/17 15:36:23;;;;;;;88.10;28.92;;;-0.90;99.90;;;;;;5024951;28;20507;-72
2022/12/17 15:38:48;;;;;;;95.18;30.95;;;-0.80;99.90;;;;;;5022997;28;20038;-73
2022/12/17 15:44:01;;;;;;;86.78;32.35;;;-0.80;99.90;;;;;;5016154;28;20461;-73
2022/12/17 15:46:28;;;;;;;83.88;26.27;;;-0.80;99.90;;;;;;5014168;28;20037;-72
2022/12/17 15:48:55;;;;;;;86.30;26.63;;;-0.80;99.90;;;;;;5012682;28;20160;-73
2022/12/17 15:51:22;;;;;;;78.07;25.73;;;-0.90;99.90;;;;;;5023259;28;20624;-73
2022/12/17 15:53:51;;;;;;;84.88;28.08;;;-1.00;99.90;;;;;;5004990;28;20518;-73
2022/12/17 15:56:24;;;;;;;89.88;28.08;;;-1.00;99.90;;;;;;5005963;28;20042;-73
2022/12/17 15:58:50;;;;;;;83.05;25.15;;;-1.00;99.90;;;;;;4995851;28;20038;-73
2022/12/17 16:01:17;;;;;;;75.22;26.40;;;-1.00;99.90;;;;;;5003978;28;20037;-73
2022/12/17 16:03:43;;;;;;;78.00;27.15;;;-1.00;99.90;;;;;;5014931;28;20042;-73
2022/12/17 16:06:09;;;;;;;80.97;25.83;;;-1.10;99.90;;;;;;5028296;28;20447;-73
2022/12/17 16:08:39;;;;;;;79.47;25.98;;;-1.10;99.90;;;;;;5012487;28;20041;-73
2022/12/17 16:11:09;;;;;;;75.97;25.20;;;-1.10;99.90;;;;;;5012263;28;20069;-72
2022/12/17 16:13:39;;;;;;;84.18;26.73;;;-1.10;99.90;;;;;;5009396;28;20041;-72
2022/12/17 16:16:05;;;;;;;79.95;29.17;;;-1.10;99.90;;;;;;5006280;28;20034;-72
2022/12/17 16:18:31;;;;;;;66.72;23.23;;;-1.20;99.90;;;;;;4994882;28;20034;-73
2022/12/17 16:21:02;;;;;;;87.50;29.50;;;-1.20;99.90;;;;;;4995493;28;20507;-73
2022/12/17 16:23:28;;;;;;;79.88;26.27;;;-1.20;99.90;;;;;;5005783;28;20073;-74
2022/12/17 16:25:58;;;;;;;90.10;28.80;;;-1.20;99.90;;;;;;5010611;28;20073;-73
2022/12/17 16:28:25;;;;;;;78.53;26.95;;;-1.20;99.90;;;;;;4994308;28;20066;-72
2022/12/17 16:31:06;;;;;;;84.35;29.77;;;-1.20;99.90;;;;;;4993698;28;20121;-72
2022/12/17 16:33:37;;;;;;;83.95;27.38;;;-1.20;99.90;;;;;;5003702;28;20038;-73
2022/12/17 16:36:05;;;;;;;81.97;27.50;;;-1.20;99.90;;;;;;4996345;28;20104;-73
2022/12/17 16:38:32;;;;;;;86.53;28.38;;;-1.20;99.90;;;;;;4992513;28;20047;-73
2022/12/17 16:41:00;;;;;;;86.93;29.08;;;-1.20;99.90;;;;;;5000315;28;20077;-73
2022/12/17 16:43:27;;;;;;;80.93;28.92;;;-1.20;99.90;;;;;;5003436;28;20042;-73
2022/12/17 16:45:54;;;;;;;77.25;27.92;;;-1.20;99.90;;;;;;5012551;28;20637;-73
2022/12/17 16:48:21;;;;;;;75.38;27.25;;;-1.20;99.90;;;;;;5016772;28;20046;-73
2022/12/17 16:50:48;;;;;;;79.63;28.58;;;-1.20;99.90;;;;;;5014283;28;20070;-73
2022/12/17 16:53:15;;;;;;;85.68;30.15;;;-1.20;99.90;;;;;;5007104;28;20049;-73
2022/12/17 16:55:46;;;;;;;95.78;46.10;;;-1.20;99.90;;;;;;5013889;28;20037;-73
2022/12/17 16:58:13;;;;;;;83.85;34.15;;;-1.20;99.90;;;;;;4997001;28;20041;-73
2022/12/17 17:00:39;;;;;;;76.38;27.77;;;-1.20;99.90;;;;;;5020261;28;20095;-71
2022/12/17 17:03:06;;;;;;;86.50;30.80;;;-1.20;99.90;;;;;;5020121;28;20046;-73
2022/12/17 17:05:39;;;;;;;81.43;31.52;;;-1.30;99.90;;;;;;5007162;28;20562;-73
2022/12/17 17:08:05;;;;;;;94.75;35.20;;;-1.30;99.90;;;;;;5000664;28;20069;-72
2022/12/17 17:10:34;;;;;;;90.97;34.60;;;-1.30;99.90;;;;;;5009373;28;20492;-74
2022/12/17 17:13:00;;;;;;;78.28;28.20;;;-1.20;99.90;;;;;;5015023;28;20034;-74
2022/12/17 17:15:26;;;;;;;78.07;30.80;;;-1.20;99.90;;;;;;5012449;28;20038;-73
2022/12/17 17:17:52;;;;;;;81.90;32.13;;;-1.20;99.90;;;;;;5009338;28;20034;-73
2022/12/17 17:20:18;;;;;;;92.53;33.50;;;-1.30;99.90;;;;;;5013130;28;20076;-73
2022/12/17 17:22:44;;;;;;;82.05;33.10;;;-1.30;99.90;;;;;;5011020;28;20512;-74
2022/12/17 17:25:09;;;;;;;87.53;32.72;;;-1.30;99.90;;;;;;5003042;28;20038;-73
2022/12/17 17:27:35;;;;;;;84.82;31.77;;;-1.40;99.90;;;;;;5006651;28;20177;-74
2022/12/17 17:30:01;;;;;;;88.63;32.10;;;-1.40;99.90;;;;;;5017522;28;20033;-74
2022/12/17 17:32:27;;;;;;;82.35;31.15;;;-1.40;99.90;;;;;;5010203;28;20045;-73
2022/12/17 17:34:53;;;;;;;89.68;33.97;;;-1.40;99.90;;;;;;5010944;28;20100;-73
2022/12/17 17:37:18;;;;;;;83.93;31.98;;;-1.50;99.90;;;;;;5002580;28;20088;-73
2022/12/17 17:39:44;;;;;;;94.45;35.13;;;-1.40;99.90;;;;;;5028380;28;20436;-74
2022/12/17 17:42:10;;;;;;;86.18;33.63;;;-1.50;99.90;;;;;;5023323;28;20081;-73
2022/12/17 17:44:37;;;;;;;84.80;30.80;;;-1.50;99.90;;;;;;5008163;28;20073;-73
2022/12/17 17:47:03;;;;;;;90.45;34.15;;;-1.50;99.90;;;;;;5004490;28;20119;-73
2022/12/17 17:49:29;;;;;;;87.38;32.63;;;-1.50;99.90;;;;;;5005534;28;20408;-73
2022/12/17 17:51:54;;;;;;;87.32;34.20;;;-1.50;99.90;;;;;;5003306;28;20038;-73
2022/12/17 17:54:20;;;;;;;85.13;34.92;;;-1.50;99.90;;;;;;5008010;28;20115;-73
2022/12/17 17:56:46;;;;;;;87.68;34.20;;;-1.50;99.90;;;;;;5008053;28;20034;-73
2022/12/17 17:59:14;;;;;;;87.63;33.65;;;-1.50;99.90;;;;;;5000118;28;20038;-73
2022/12/17 18:01:48;;;;;;;87.95;32.88;;;-1.50;99.90;;;;;;5002369;28;20085;-73
2022/12/17 18:04:20;;;;;;;92.75;35.42;;;-1.50;99.90;;;;;;5002402;28;20505;-74
2022/12/17 18:06:47;;;;;;;94.78;36.83;;;-1.60;99.90;;;;;;5015411;28;20042;-74
2022/12/17 18:09:13;;;;;;;100.47;39.33;;;-1.50;99.90;;;;;;5008346;28;20060;-73
2022/12/17 18:11:41;;;;;;;88.38;33.50;;;-1.50;99.90;;;;;;5001307;28;20057;-75
2022/12/17 18:14:09;;;;;;;91.28;34.78;;;-1.50;99.90;;;;;;5006411;28;20038;-74
2022/12/17 18:16:47;;;;;;;97.70;36.63;;;-1.50;99.90;;;;;;4995628;28;20084;-74
2022/12/17 18:19:16;;;;;;;101.25;38.38;;;-1.50;99.90;;;;;;5010542;28;20037;-74
2022/12/17 18:21:42;;;;;;;90.43;33.65;;;-1.50;99.90;;;;;;5015311;28;20041;-74
2022/12/17 18:24:14;;;;;;;94.05;37.97;;;-1.50;99.90;;;;;;5014068;28;20556;-74
2022/12/17 18:26:41;;;;;;;94.45;37.40;;;-1.50;99.90;;;;;;5004511;28;20113;-74
2022/12/17 18:29:27;;;;;;;99.03;38.92;;;-1.50;99.90;;;;;;5012323;28;20124;-74
2022/12/17 18:31:53;;;;;;;93.50;38.03;;;-1.50;99.90;;;;;;5012570;28;20054;-74
2022/12/17 18:34:22;;;;;;;102.55;36.67;;;-1.50;99.90;;;;;;4994005;28;20033;-74
2022/12/17 18:36:49;;;;;;;96.30;37.45;;;-1.50;99.90;;;;;;5002766;28;20038;-74
2022/12/17 18:39:17;;;;;;;95.40;35.92;;;-1.50;99.90;;;;;;5008613;28;20034;-74
2022/12/17 18:44:31;;;;;;;97.35;38.10;;;-1.50;99.90;;;;;;5004804;28;20109;-74
2022/12/17 18:46:57;;;;;;;97.22;36.78;;;-1.50;99.90;;;;;;5009611;28;20049;-75
2022/12/17 18:49:23;;;;;;;102.32;39.75;;;-1.50;99.90;;;;;;5019039;28;20042;-74
2022/12/17 18:51:49;;;;;;;101.50;36.90;;;-1.50;99.90;;;;;;5006943;28;20034;-74
2022/12/17 18:54:21;;;;;;;99.00;36.03;;;-1.50;99.90;;;;;;5008578;28;20500;-74
2022/12/17 18:56:47;;;;;;;104.30;38.15;;;-1.50;99.90;;;;;;5005981;28;20034;-74
2022/12/17 18:59:15;;;;;;;106.90;39.63;;;-1.60;99.90;;;;;;5004539;28;20037;-74
2022/12/17 19:01:41;;;;;;;95.05;36.47;;;-1.60;99.90;;;;;;4995270;28;20442;-74
2022/12/17 19:04:10;;;;;;;90.38;33.33;;;-1.60;99.90;;;;;;5000872;28;20130;-74
2022/12/17 19:06:37;;;;;;;98.63;37.05;;;-1.60;99.90;;;;;;5002930;28;20034;-74
2022/12/17 19:09:04;;;;;;;101.25;38.42;;;-1.60;99.90;;;;;;5000806;28;20029;-75
2022/12/17 19:11:30;;;;;;;96.10;34.13;;;-1.70;99.90;;;;;;5003049;28;20038;-74
2022/12/17 19:13:56;;;;;;;91.78;30.92;;;-1.70;99.90;;;;;;5060077;22;20037;-65
2022/12/17 19:16:24;;;;;;;90.50;30.33;;;-1.70;99.90;;;;;;5061665;28;20044;-64
2022/12/17 19:18:56;;;;;;;94.18;35.67;;;-1.70;99.90;;;;;;5063879;28;20036;-65
2022/12/17 19:21:22;;;;;;;;;;;-1.80;99.90;;;;;;5063000;28;20059;-65
2022/12/17 19:23:49;;;;;;;89.68;31.45;;;-1.80;99.90;;;;;;5056067;28;19924;-65
2022/12/17 19:26:19;;;;;;;104.75;36.30;;;-1.80;99.90;;;;;;5061737;28;20398;-65
2022/12/17 19:28:47;;;;;;;95.95;36.33;;;-1.80;99.90;;;;;;5066123;28;20106;-65
2022/12/17 19:31:15;;;;;;;104.83;39.27;;;-1.80;99.90;;;;;;5064778;28;20037;-65
2022/12/17 19:33:41;;;;;;;97.57;37.00;;;-1.80;99.90;;;;;;5062564;28;20041;-65
2022/12/17 19:36:10;;;;;;;100.93;33.33;;;-1.80;99.90;;;;;;5063819;28;20040;-65
2022/12/17 19:38:36;;;;;;;103.03;37.90;;;-1.80;99.90;;;;;;5063795;28;20036;-65
2022/12/17 19:41:09;;;;;;;96.55;34.40;;;-1.80;99.90;;;;;;5063789;28;20077;-65
2022/12/17 19:43:35;;;;;;;96.05;33.28;;;-1.80;99.90;;;;;;5062306;28;20494;-65
2022/12/17 19:46:02;;;;;;;97.45;32.83;;;-1.80;99.90;;;;;;5060082;28;20119;-65
2022/12/17 19:48:28;;;;;;;93.87;32.10;;;-1.80;99.90;;;;;;5064902;28;20060;-65
2022/12/17 19:50:56;;;;;;;92.18;34.15;;;-1.90;99.90;;;;;;5063200;28;20486;-65
2022/12/17 19:53:22;;;;;;;103.03;35.10;;;-1.90;99.90;;;;;;5057329;28;20504;-65
2022/12/17 19:55:47;;;;;;;87.95;32.80;;;-1.80;99.90;;;;;;5062691;28;20044;-65
2022/12/17 19:58:13;;;;;;;102.60;35.75;;;-1.80;99.90;;;;;;5065404;28;20059;-65
2022/12/17 20:00:39;;;;;;;98.35;34.50;;;-1.90;99.90;;;;;;5059776;28;20486;-65
2022/12/17 20:03:04;;;;;;;90.90;33.60;;;-1.90;99.90;;;;;;5060703;28;20079;-65
2022/12/17 20:05:30;;;;;;;94.97;32.50;;;-1.90;99.90;;;;;;5060744;28;20032;-65
2022/12/17 20:07:55;;;;;;;100.67;33.77;;;-1.90;99.90;;;;;;5061486;28;20550;-65
2022/12/17 20:10:21;;;;;;;98.60;37.10;;;-1.90;99.90;;;;;;5061110;28;20047;-65
2022/12/17 20:12:46;;;;;;;102.63;36.33;;;-1.90;99.90;;;;;;5061094;28;20094;-65
2022/12/17 20:15:12;;;;;;;103.22;36.22;;;-1.90;99.90;;;;;;5060616;28;20036;-65
2022/12/17 20:17:37;;;;;;;97.72;34.70;;;-1.90;99.90;;;;;;5060400;28;20040;-65
2022/12/17 20:20:03;;;;;;;98.00;34.47;;;-1.90;99.90;;;;;;5048896;28;20044;-65
2022/12/17 20:22:29;;;;;;;97.28;34.25;;;-1.90;99.90;;;;;;5063873;28;20481;-65
2022/12/17 20:24:55;;;;;;;95.45;34.42;;;-1.90;99.90;;;;;;5060674;28;20528;-65
2022/12/17 20:27:20;;;;;;;89.47;32.25;;;-1.90;99.90;;;;;;5060597;28;20036;-65
2022/12/17 20:29:46;;;;;;;88.70;30.75;;;-2.00;99.90;;;;;;5064167;28;20398;-65
2022/12/17 20:32:12;;;;;;;99.00;34.60;;;-2.00;99.90;;;;;;5067007;28;20490;-65
2022/12/17 20:34:38;;;;;;;92.73;31.50;;;-2.00;99.90;;;;;;5061375;28;20037;-65
2022/12/17 20:37:03;;;;;;;96.17;31.77;;;-2.10;99.90;;;;;;5065347;28;20028;-66
2022/12/17 20:39:30;;;;;;;100.20;32.87;;;-2.10;99.90;;;;;;5060379;28;20038;-65
2022/12/17 20:41:56;;;;;;;93.80;31.47;;;-2.10;99.90;;;;;;5063173;28;20044;-65
2022/12/17 20:44:22;;;;;;;105.60;34.07;;;-2.10;99.90;;;;;;5061571;28;20530;-65
2022/12/17 20:46:47;;;;;;;97.57;32.67;;;-2.20;99.90;;;;;;5062832;28;20804;-66
2022/12/17 20:49:13;;;;;;;89.97;31.53;;;-2.20;99.90;;;;;;5061684;28;20119;-65
2022/12/17 20:51:39;;;;;;;93.53;32.20;;;-2.20;99.90;;;;;;5063784;28;20048;-66
2022/12/17 20:54:07;;;;;;;96.28;34.22;;;-2.20;99.90;;;;;;5060826;28;20082;-65
2022/12/17 20:56:33;;;;;;;100.27;34.27;;;-2.20;99.90;;;;;;5058421;28;20472;-65
2022/12/17 20:59:05;;;;;;;99.23;35.00;;;-2.20;99.90;;;;;;5061296;28;20401;-65
2022/12/17 21:01:32;;;;;;;;;;;-2.20;99.90;;;;;;5062948;28;20033;-65
2022/12/17 21:03:58;;;;;;;92.40;30.07;;;-2.30;99.90;;;;;;5061576;28;19925;-65
2022/12/17 21:06:31;;;;;;;94.87;31.50;;;-2.30;99.90;;;;;;5065008;28;20039;-66
2022/12/17 21:08:57;;;;;;;98.43;33.73;;;-2.30;99.90;;;;;;5062110;28;20040;-66
2022/12/17 21:11:25;;;;;;;96.68;32.92;;;-2.30;99.90;;;;;;5060091;28;20032;-65
2022/12/17 21:13:52;;;;;;;97.82;33.67;;;-2.30;99.90;;;;;;5062944;28;20064;-65
2022/12/17 21:16:24;;;;;;;93.47;32.70;;;-2.20;99.90;;;;;;5055831;28;20044;-65
2022/12/17 21:18:50;;;;;;;97.07;33.07;;;-2.20;99.90;;;;;;5058792;28;20398;-66
2022/12/17 21:21:18;;;;;;;102.27;34.60;;;-2.30;99.90;;;;;;5062406;28;20037;-65
2022/12/17 21:23:46;;;;;;;101.67;34.77;;;-2.20;99.90;;;;;;5059798;28;20486;-65
2022/12/17 21:26:18;;;;;;;100.50;34.37;;;-2.20;99.90;;;;;;5060288;28;20537;-66
2022/12/17 21:28:45;;;;;;;102.88;35.05;;;-2.20;99.90;;;;;;5062514;28;20047;-65
2022/12/17 21:31:35;;;;;;;89.73;32.20;;;-2.20;99.90;;;;;;5060577;28;20041;-65
2022/12/17 21:34:04;;;;;;;87.27;31.13;;;-2.20;99.90;;;;;;5054169;28;20045;-65
2022/12/17 21:36:31;;;;;;;102.35;32.28;;;-2.30;99.90;;;;;;5061530;28;20433;-66
2022/12/17 21:38:57;;;;;;;99.17;35.30;;;-2.30;99.90;;;;;;5059193;28;20405;-65
2022/12/17 21:41:30;;;;;;;103.10;34.23;;;-2.40;99.90;;;;;;5060092;28;20047;-66
2022/12/17 21:44:02;;;;;;;92.00;32.07;;;-2.40;99.90;;;;;;5064577;28;20033;-66
2022/12/17 21:46:28;;;;;;;;;;;-2.40;99.90;;;;;;5060831;28;20087;-66
2022/12/17 21:48:55;;;;;;;88.20;29.43;;;-2.40;99.90;;;;;;5061490;28;19920;-66
2022/12/17 21:51:21;;;;;;;94.03;28.77;;;-2.40;99.90;;;;;;5062746;28;20029;-66
2022/12/17 21:53:51;;;;;;;96.17;33.00;;;-2.40;99.90;;;;;;5067221;28;20440;-67
2022/12/17 21:56:17;;;;;;;100.20;35.20;;;-2.40;99.90;;;;;;5065766;28;20040;-66
2022/12/17 21:58:45;;;;;;;81.10;27.30;;;-2.40;99.90;;;;;;5060614;28;20127;-66
2022/12/17 22:01:21;;;;;;;80.60;29.47;;;-2.40;99.90;;;;;;5067101;28;20497;-66
2022/12/17 22:03:48;;;;;;;71.77;26.30;;;-2.50;99.90;;;;;;5066403;28;20107;-66
2022/12/17 22:06:16;;;;;;;76.87;27.67;;;-2.50;99.90;;;;;;5063473;28;20095;-67
2022/12/17 22:08:43;;;;;;;92.80;30.07;;;-2.60;99.90;;;;;;5066858;28;20052;-67
2022/12/17 22:11:18;;;;;;;84.37;27.57;;;-2.60;99.90;;;;;;5067978;28;20032;-66
2022/12/17 22:14:05;;;;;;;88.47;29.20;;;-2.60;99.90;;;;;;5063582;28;20121;-67
2022/12/17 22:16:42;;;;;;;73.83;26.07;;;-2.60;99.90;;;;;;5060135;28;20041;-66
2022/12/17 22:19:13;;;;;;;80.43;25.03;;;-2.60;99.90;;;;;;5066983;28;20561;-66
2022/12/17 22:21:40;;;;;;;;;;;-2.60;99.90;;;;;;5066164;28;20398;-66
2022/12/17 22:24:10;;;;;;;85.20;29.87;;;-2.70;99.90;;;;;;5063653;28;19931;-66
2022/12/17 22:26:36;;;;;;;88.07;29.37;;;-2.70;99.90;;;;;;5063809;28;20131;-66
2022/12/17 22:29:02;;;;;;;89.50;30.17;;;-2.70;99.90;;;;;;5069116;28;20192;-67
2022/12/17 22:34:12;;;;;;;92.43;29.00;;;-2.70;99.90;;;;;;5057395;28;20521;-66
2022/12/17 22:36:39;;;;;;;92.87;31.50;;;-2.70;99.90;;;;;;5060502;28;20053;-66
2022/12/17 22:39:10;;;;;;;94.77;31.20;;;-2.70;99.90;;;;;;5064942;28;20501;-66
2022/12/17 22:44:20;;;;;;;101.97;33.67;;;-2.70;99.90;;;;;;5065834;28;20059;-67
2022/12/17 22:46:46;;;;;;;101.43;33.40;;;-2.70;99.90;;;;;;5071198;28;20028;-66
2022/12/17 22:49:12;;;;;;;92.77;30.60;;;-2.70;99.90;;;;;;5068741;28;20044;-66
2022/12/17 22:51:40;;;;;;;94.63;30.83;;;-2.70;99.90;;;;;;5069604;28;20024;-66
2022/12/17 22:54:07;;;;;;;98.10;30.00;;;-2.60;99.90;;;;;;5071109;28;20028;-66
2022/12/17 22:56:34;;;;;;;88.00;31.60;;;-2.60;99.90;;;;;;5073043;28;20067;-66
2022/12/17 22:59:00;;;;;;;102.63;32.10;;;-2.70;99.90;;;;;;5072142;28;20036;-66
2022/12/17 23:01:27;;;;;;;92.53;32.43;;;-2.60;99.90;;;;;;5070669;28;20043;-66
2022/12/17 23:04:00;;;;;;;98.07;31.33;;;-2.60;99.90;;;;;;5072312;28;20068;-66
2022/12/17 23:06:26;;;;;;;98.27;32.00;;;-2.70;99.90;;;;;;5069918;28;20575;-66
2022/12/17 23:08:52;;;;;;;109.43;33.00;;;-2.70;99.90;;;;;;5071903;28;20036;-66
2022/12/17 23:11:21;;;;;;;97.07;31.60;;;-2.60;99.90;;;;;;5071694;28;20056;-67
2022/12/17 23:13:47;;;;;;;99.97;30.93;;;-2.70;99.90;;;;;;5070128;28;20044;-66
2022/12/17 23:16:13;;;;;;;105.37;34.00;;;-2.70;99.90;;;;;;5069459;28;20139;-66
2022/12/17 23:18:40;;;;;;;113.40;33.03;;;-2.70;99.90;;;;;;5073531;28;20115;-66
2022/12/17 23:21:14;;;;;;;113.47;33.90;;;-2.70;99.90;;;;;;5071824;28;20036;-66
2022/12/17 23:23:40;;;;;;;105.27;29.93;;;-2.70;99.90;;;;;;5067488;28;20405;-66
2022/12/17 23:26:15;;;;;;;109.77;34.70;;;-2.70;99.90;;;;;;5071884;28;20044;-66
2022/12/17 23:28:42;;;;;;;101.07;31.80;;;-2.70;99.90;;;;;;5068797;28;20547;-66
2022/12/17 23:31:10;;;;;;;90.50;30.47;;;-2.80;99.90;;;;;;5073062;28;20094;-66
2022/12/17 23:33:36;;;;;;;113.07;33.30;;;-2.80;99.90;;;;;;5069223;28;20498;-66
2022/12/17 23:36:04;;;;;;;113.47;34.10;;;-2.80;99.90;;;;;;5071278;28;20032;-66
2022/12/17 23:38:29;;;;;;;120.63;37.00;;;-2.90;99.90;;;;;;5060436;28;20549;-66
2022/12/17 23:41:01;;;;;;;109.77;33.33;;;-2.90;99.90;;;;;;5072883;28;20111;-66
2022/12/17 23:43:28;;;;;;;108.70;33.07;;;-2.80;99.90;;;;;;5070643;28;20127;-66
2022/12/17 23:45:54;;;;;;;104.97;31.37;;;-2.90;99.90;;;;;;5069698;28;20083;-66
2022/12/17 23:48:19;;;;;;;110.17;33.83;;;-2.90;99.90;;;;;;5069807;28;20079;-66
2022/12/17 23:50:45;;;;;;;110.23;34.13;;;-2.90;99.90;;;;;;5070070;28;20032;-66
2022/12/17 23:53:11;;;;;;;117.53;35.73;;;-2.90;99.90;;;;;;5069799;28;20127;-66
2022/12/17 23:55:36;;;;;;;124.00;38.67;;;-2.90;99.90;;;;;;5072348;28;20037;-66
2022/12/17 23:58:02;;;;;;;126.50;37.10;;;-2.90;99.90;;;;;;5070405;28;20078;-66
